createdAt,value
2022-08-09T00:07:48.481Z,17.2
2022-08-09T00:18:04.899Z,17
2022-08-09T00:27:51.929Z,16.9
2022-08-09T00:37:54.213Z,16.8
2022-08-09T00:47:56.822Z,16.7
2022-08-09T00:57:59.556Z,16.6
2022-08-09T01:08:01.765Z,16.4
2022-08-09T01:18:04.176Z,16.2
2022-08-09T01:38:10.398Z,16
2022-08-09T01:48:10.777Z,16
2022-08-09T01:58:12.960Z,16
2022-08-09T02:08:36.364Z,15.9
2022-08-09T02:18:16.954Z,15.8
2022-08-09T02:28:19.032Z,15.7
2022-08-09T02:38:21.982Z,15.6
2022-08-09T02:48:30.470Z,15.6
2022-08-09T02:58:33.113Z,15.4
2022-08-09T03:08:26.931Z,15.1
2022-08-09T03:18:30.437Z,15.1
2022-08-09T03:28:31.367Z,15.1
2022-08-09T03:38:33.317Z,15.1
2022-08-09T03:48:36.069Z,14.7
2022-08-09T03:58:37.464Z,14.7
2022-08-09T04:08:40.093Z,14.5
2022-08-09T04:18:41.986Z,14.4
2022-08-09T04:28:46.900Z,14.5
2022-08-09T04:48:50.418Z,14.7
2022-08-09T04:58:50.941Z,14.8
2022-08-09T05:08:52.624Z,15
2022-08-09T05:18:57.316Z,15.2
2022-08-09T05:28:57.010Z,15.3
2022-08-09T05:38:58.922Z,15.5
2022-08-09T05:49:01.376Z,15.8
2022-08-09T05:59:03.014Z,16.1
2022-08-09T06:09:10.109Z,16.5
2022-08-09T06:19:08.066Z,16.9
2022-08-09T06:29:14.861Z,17.1
2022-08-09T07:39:40.685Z,19.6
2022-08-09T07:59:33.540Z,20.2
2022-08-09T08:09:35.412Z,20.6
2022-08-09T08:19:33.860Z,21.3
2022-08-09T08:39:43.330Z,22
2022-08-09T08:49:46.513Z,22.6
2022-08-09T09:09:58.898Z,23.2
2022-08-09T09:19:46.230Z,23.6
2022-08-09T09:30:08.663Z,24.2
2022-08-09T09:39:55.218Z,24.3
2022-08-09T09:59:54.260Z,24.5
2022-08-09T10:09:56.012Z,25.4
2022-08-09T10:19:58.057Z,24.8
2022-08-09T10:40:02.768Z,25.3
2022-08-09T10:50:04.612Z,25.7
2022-08-09T11:00:07.028Z,25.8
2022-08-09T11:10:16.285Z,26.1
2022-08-09T11:20:20.584Z,26
2022-08-09T11:30:32.260Z,26.3
2022-08-09T11:50:54.517Z,26.6
2022-08-09T12:00:27.529Z,26.4
2022-08-09T12:10:32.309Z,27
2022-08-09T12:20:31.131Z,27.2
2022-08-09T12:30:37.140Z,27.3
2022-08-09T12:40:35.765Z,27.3
2022-08-09T13:00:40.594Z,27.3
2022-08-09T13:10:42.739Z,27.2
2022-08-09T13:21:04.627Z,27.1
2022-08-09T13:30:49.673Z,27.9
2022-08-09T13:41:22.138Z,27.3
2022-08-09T13:50:51.581Z,28.4
2022-08-09T14:00:54.002Z,27.9
2022-08-09T14:10:56.110Z,28
2022-08-09T14:20:58.450Z,28.2
2022-08-09T14:31:00.994Z,27.6
2022-08-09T14:41:12.918Z,28.9
2022-08-09T14:51:05.218Z,28.5
2022-08-09T15:01:06.587Z,28.2
2022-08-09T15:11:08.654Z,28.2
2022-08-09T15:21:54.084Z,28.1
2022-08-09T15:31:18.027Z,28
2022-08-09T15:51:30.611Z,28.2
2022-08-09T16:01:19.217Z,27.8
2022-08-09T16:11:21.061Z,28
2022-08-09T16:21:25.335Z,27.3
2022-08-09T16:31:37.927Z,27.2
2022-08-09T16:41:39.489Z,27
2022-08-09T16:51:29.147Z,26.8
2022-08-09T17:01:33.580Z,26.8
2022-08-09T17:11:41.391Z,26.7
2022-08-09T17:21:35.382Z,26.7
2022-08-09T17:31:38.764Z,26.5
2022-08-09T17:41:40.039Z,26.4
2022-08-09T17:51:42.312Z,26.2
2022-08-09T18:02:03.996Z,26.1
2022-08-09T18:12:06.098Z,25.8
2022-08-09T18:21:50.298Z,25.6
2022-08-09T18:31:56.046Z,25.4
2022-08-09T18:41:53.963Z,25.2
2022-08-09T18:51:57.969Z,24.9
2022-08-09T19:01:58.236Z,24.7
2022-08-09T19:12:00.275Z,24.4
2022-08-09T19:22:05.259Z,24.2
2022-08-09T19:32:04.110Z,23.9
2022-08-09T19:42:06.002Z,23.7
2022-08-09T19:52:08.519Z,23.4
2022-08-09T20:02:18.372Z,23.2
2022-08-09T20:12:27.335Z,22.9
2022-08-09T20:22:15.358Z,22.7
2022-08-09T20:32:29.671Z,22.5
2022-08-09T20:42:19.009Z,22.3
2022-08-09T20:52:20.764Z,22.1
2022-08-09T21:02:23.136Z,21.9
2022-08-09T21:22:38.112Z,21.6
2022-08-09T21:32:33.224Z,21.3
2022-08-09T21:42:31.732Z,21.2
2022-08-09T21:52:33.968Z,21
2022-08-09T22:02:38.039Z,20.9
2022-08-09T22:12:38.839Z,20.7
2022-08-09T22:22:40.323Z,20.6
2022-08-09T22:32:42.285Z,20.4
2022-08-09T22:42:44.611Z,20.2
2022-08-09T22:52:46.903Z,20.1
2022-08-09T23:02:49.281Z,20
2022-08-09T23:12:51.811Z,19.8
2022-08-09T23:22:54.399Z,19.6
2022-08-09T23:32:56.172Z,19.4
2022-08-09T23:42:58.715Z,19.1
2022-08-09T23:53:01.095Z,19
